Time;durP1;ratioP1;P1;durP2;ratioP2;P2;SDS_P1;SDS_P2;PMS_P1;PMS_P2;Temp;Humidity;BMP_temperature;BMP_pressure;BME280_temperature;BME280_humidity;BME280_pressure;Samples;Min_cycle;Max_cycle;Signal;HPM_P1;HPM_P2
2023/05/14 00:01:50;;;;;;;32.13;20.95;;;10.20;99.90;;;9.49;100.00;101842.50;4119583;28;20041;-73
2023/05/14 00:03:51;;;;;;;28.88;20.25;;;10.20;99.90;;;9.51;100.00;101844.06;4135802;28;20081;-72
2023/05/14 00:05:52;;;;;;;28.65;20.92;;;10.20;99.90;;;9.46;100.00;101838.31;4120989;28;20035;-73
2023/05/14 00:07:53;;;;;;;32.35;22.00;;;10.20;99.90;;;9.50;100.00;101842.38;4119670;28;20121;-73
2023/05/14 00:09:54;;;;;;;36.78;21.40;;;10.10;99.90;;;9.49;100.00;101835.44;4120916;28;20031;-73
2023/05/14 00:11:55;;;;;;;30.95;22.42;;;10.20;99.90;;;9.48;100.00;101836.41;4121108;28;20048;-73
2023/05/14 00:13:56;;;;;;;35.00;21.35;;;10.10;99.90;;;9.44;100.00;101833.16;4120826;28;20030;-73
2023/05/14 00:15:56;;;;;;;35.83;21.92;;;10.20;99.90;;;9.51;100.00;101833.53;4119358;28;20035;-72
2023/05/14 00:17:57;;;;;;;30.85;20.67;;;10.20;99.90;;;9.50;100.00;101823.13;4120887;28;20023;-73
2023/05/14 00:19:58;;;;;;;28.88;20.17;;;10.20;99.90;;;9.48;100.00;101814.50;4119725;28;20027;-73
2023/05/14 00:21:59;;;;;;;31.20;20.63;;;10.10;99.90;;;9.48;100.00;101820.59;4119729;28;20030;-73
2023/05/14 00:24:00;;;;;;;36.05;21.63;;;10.10;99.90;;;9.43;100.00;101813.06;4120638;28;20027;-73
2023/05/14 00:26:01;;;;;;;26.77;19.88;;;10.10;99.90;;;9.44;100.00;101819.16;4119437;28;20035;-73
2023/05/14 00:28:03;;;;;;;36.45;23.52;;;10.10;99.90;;;9.40;100.00;101815.13;4120688;28;20062;-73
2023/05/14 00:30:07;;;;;;;34.83;22.52;;;10.10;99.90;;;9.45;100.00;101823.47;4119825;28;20033;-73
2023/05/14 00:32:08;;;;;;;33.17;22.30;;;10.10;99.90;;;9.44;100.00;101821.78;4119113;28;20037;-72
2023/05/14 00:34:09;;;;;;;36.50;22.08;;;10.10;99.90;;;9.46;100.00;101825.16;4119197;28;20035;-73
2023/05/14 00:36:10;;;;;;;28.88;21.08;;;10.10;99.90;;;9.46;100.00;101827.78;4119439;28;20402;-73
2023/05/14 00:38:15;;;;;;;31.48;21.17;;;10.10;99.90;;;9.44;100.00;101812.09;4120572;28;20107;-72
2023/05/14 00:40:16;;;;;;;30.50;21.70;;;10.10;99.90;;;9.43;100.00;101810.44;4120493;28;20379;-72
2023/05/14 00:42:17;;;;;;;34.13;22.77;;;10.10;99.90;;;9.44;100.00;101806.00;4119143;28;20047;-72
2023/05/14 00:44:18;;;;;;;32.85;21.55;;;10.10;99.90;;;9.37;100.00;101794.28;4120344;28;20070;-73
2023/05/14 00:46:19;;;;;;;28.75;19.92;;;10.10;99.90;;;9.37;100.00;101799.56;4120244;28;20394;-73
2023/05/14 00:48:21;;;;;;;26.60;18.38;;;10.10;99.90;;;9.36;100.00;101795.25;4119049;28;20031;-72
2023/05/14 00:50:22;;;;;;;27.63;20.35;;;10.10;99.90;;;9.33;100.00;101792.84;4135198;28;20113;-73
2023/05/14 00:52:24;;;;;;;32.85;22.13;;;10.10;99.90;;;9.30;100.00;101795.72;4119154;28;20510;-72
2023/05/14 00:54:25;;;;;;;28.20;20.98;;;10.00;99.90;;;9.31;100.00;101798.25;4119069;28;20123;-72
2023/05/14 00:56:27;;;;;;;27.77;20.67;;;10.00;99.90;;;9.29;100.00;101794.03;4119089;28;20082;-73
2023/05/14 00:58:28;;;;;;;26.48;19.50;;;10.00;99.90;;;9.30;100.00;101801.84;4118995;28;20109;-72
2023/05/14 01:00:29;;;;;;;28.52;19.08;;;10.00;99.90;;;9.31;100.00;101807.94;4120122;28;20023;-73
2023/05/14 01:02:30;;;;;;;36.42;22.15;;;10.00;99.90;;;9.25;100.00;101792.63;4118955;28;20027;-73
2023/05/14 01:04:31;;;;;;;34.75;21.77;;;10.00;99.90;;;9.26;100.00;101795.13;4118908;28;20039;-73
2023/05/14 01:06:57;;;;;;;29.35;20.38;;;10.00;99.90;;;9.26;100.00;101795.13;4118865;28;20038;-72
2023/05/14 01:09:29;;;;;;;30.30;21.42;;;10.00;99.90;;;9.23;100.00;101784.84;4120345;28;20075;-73
2023/05/14 01:11:47;;;;;;;28.08;20.45;;;10.00;99.90;;;9.18;100.00;101792.28;4120259;28;20120;-73
2023/05/14 01:13:56;;;;;;;30.15;21.25;;;9.90;99.90;;;9.18;100.00;101796.69;4119074;28;20030;-73
2023/05/14 01:15:59;;;;;;;35.58;21.73;;;9.90;99.90;;;9.10;100.00;101785.94;4119796;28;20031;-73
2023/05/14 01:18:13;;;;;;;30.25;20.83;;;9.80;99.90;;;9.13;100.00;101781.28;4120145;28;20100;-73
2023/05/14 01:20:14;;;;;;;41.08;22.25;;;9.80;99.90;;;9.13;100.00;101788.34;4120088;28;20494;-73
2023/05/14 01:22:15;;;;;;;27.95;20.67;;;9.80;99.90;;;9.09;100.00;101786.88;4118888;28;20482;-73
2023/05/14 01:24:16;;;;;;;38.47;23.38;;;9.80;99.90;;;9.07;100.00;101780.94;4120176;28;20031;-73
2023/05/14 01:26:16;;;;;;;28.77;21.25;;;9.80;99.90;;;9.07;100.00;101786.19;4119919;28;20019;-73
2023/05/14 01:28:34;;;;;;;34.28;20.98;;;9.80;99.90;;;9.06;100.00;101781.88;4119790;28;20039;-73
2023/05/14 01:30:42;;;;;;;37.35;21.52;;;9.80;99.90;;;8.99;100.00;101778.06;4118859;28;20438;-73
2023/05/14 01:32:47;;;;;;;35.03;21.10;;;9.80;99.90;;;8.98;100.00;101779.84;4118450;28;20038;-73
2023/05/14 01:34:49;;;;;;;33.78;20.52;;;9.70;99.90;;;8.97;100.00;101783.44;4119715;28;20026;-73
2023/05/14 01:36:52;;;;;;;31.20;20.63;;;9.70;99.90;;;9.00;100.00;101788.47;4118779;28;20035;-73
2023/05/14 01:38:54;;;;;;;31.42;22.10;;;9.70;99.90;;;9.03;100.00;101792.63;4118790;28;20034;-73
2023/05/14 01:40:56;;;;;;;33.35;21.50;;;9.70;99.90;;;9.02;100.00;101793.63;4118582;28;20031;-73
2023/05/14 01:42:57;;;;;;;32.28;21.13;;;9.70;99.90;;;8.97;100.00;101782.59;4118700;28;20514;-72
2023/05/14 01:44:58;;;;;;;33.45;21.73;;;9.70;99.90;;;8.96;100.00;101773.03;4118694;28;20054;-72
2023/05/14 01:46:59;;;;;;;29.52;20.45;;;9.70;99.90;;;8.96;100.00;101783.56;4118458;28;20031;-73
2023/05/14 01:49:00;;;;;;;35.05;21.50;;;9.70;99.90;;;8.97;100.00;101785.22;4118559;28;20553;-73
2023/05/14 01:51:01;;;;;;;32.22;22.65;;;9.70;99.90;;;8.93;100.00;101773.28;4119882;28;20045;-73
2023/05/14 01:53:02;;;;;;;35.08;23.73;;;9.70;99.90;;;8.93;100.00;101771.47;4118685;28;20026;-72
2023/05/14 01:55:04;;;;;;;35.53;21.98;;;9.70;99.90;;;8.97;100.00;101779.97;4118700;28;20027;-73
2023/05/14 01:57:04;;;;;;;35.47;22.38;;;9.70;99.90;;;8.90;100.00;101772.53;4118503;28;20054;-72
2023/05/14 01:59:05;;;;;;;30.88;21.67;;;9.70;99.90;;;8.90;100.00;101771.69;4119899;28;20419;-72
2023/05/14 02:01:06;;;;;;;36.58;22.88;;;9.60;99.90;;;8.90;100.00;101777.81;4121350;28;20059;-73
2023/05/14 02:03:07;;;;;;;41.42;24.45;;;9.60;99.90;;;8.90;100.00;101774.34;4122880;28;20038;-73
2023/05/14 02:05:10;;;;;;;35.33;22.75;;;9.60;99.90;;;8.90;100.00;101769.91;4122671;28;20057;-73
2023/05/14 02:07:12;;;;;;;33.37;23.70;;;9.60;99.90;;;8.87;100.00;101770.16;4121910;28;20091;-73
2023/05/14 02:09:13;;;;;;;33.83;20.85;;;9.70;99.90;;;8.86;100.00;101770.28;4137782;28;20037;-72
2023/05/14 02:11:14;;;;;;;33.75;23.55;;;9.60;99.90;;;8.88;100.00;101769.22;4105494;29;20024;-72
2023/05/14 02:13:16;;;;;;;32.53;23.60;;;9.60;99.90;;;8.91;100.00;101778.66;4121570;28;20030;-73
2023/05/14 02:15:17;;;;;;;33.35;22.13;;;9.70;99.90;;;8.86;100.00;101770.28;4121240;28;20073;-73
2023/05/14 02:17:18;;;;;;;34.65;23.52;;;9.60;99.90;;;8.89;100.00;101775.31;4122683;28;20035;-72
2023/05/14 02:19:19;;;;;;;36.55;23.83;;;9.60;99.90;;;8.84;100.00;101769.59;4121456;28;20034;-72
2023/05/14 02:21:20;;;;;;;39.53;23.45;;;9.60;99.90;;;8.87;100.00;101778.03;4122500;28;20022;-73
2023/05/14 02:23:21;;;;;;;37.25;24.83;;;9.60;99.90;;;8.89;100.00;101772.69;4122661;28;20038;-73
2023/05/14 02:25:22;;;;;;;34.25;24.42;;;9.60;99.90;;;8.90;100.00;101780.44;4121397;28;20402;-72
2023/05/14 02:27:22;;;;;;;36.60;24.08;;;9.60;99.90;;;8.89;100.00;101784.06;4122467;28;20031;-72
2023/05/14 02:29:23;;;;;;;36.70;23.13;;;9.60;99.90;;;8.88;100.00;101785.00;4122411;28;20027;-73
2023/05/14 02:31:24;;;;;;;32.35;22.80;;;9.60;99.90;;;8.88;100.00;101784.16;4121200;28;20035;-73
2023/05/14 02:33:25;;;;;;;33.40;22.45;;;9.60;99.90;;;8.87;100.00;101777.19;4122649;28;20030;-72
2023/05/14 02:35:26;;;;;;;38.35;24.00;;;9.60;99.90;;;8.85;100.00;101785.22;4122327;28;20027;-73
2023/05/14 02:37:27;;;;;;;38.08;23.83;;;9.60;99.90;;;8.86;100.00;101784.28;4122228;28;20030;-73
2023/05/14 02:39:28;;;;;;;34.58;23.42;;;9.50;99.90;;;8.83;100.00;101776.63;4121176;28;20450;-73
2023/05/14 02:41:28;;;;;;;39.00;24.58;;;9.50;99.90;;;8.78;100.00;101768.25;4122299;28;20035;-72
2023/05/14 02:43:29;;;;;;;40.30;25.38;;;9.60;99.90;;;8.77;100.00;101771.00;4122203;28;20026;-72
2023/05/14 02:45:30;;;;;;;41.17;26.17;;;9.50;99.90;;;8.76;100.00;101764.06;4120612;28;20047;-72
2023/05/14 02:47:31;;;;;;;37.55;25.00;;;9.50;99.90;;;8.74;100.00;101776.50;4120968;28;20126;-73
2023/05/14 02:49:32;;;;;;;37.78;24.73;;;9.50;99.90;;;8.74;100.00;101769.47;4121145;28;20062;-72
2023/05/14 02:51:33;;;;;;;40.15;26.08;;;9.50;99.90;;;8.74;100.00;101766.81;4120962;28;20039;-72
2023/05/14 02:53:34;;;;;;;37.22;24.70;;;9.50;99.90;;;8.81;100.00;101769.81;4122236;28;20560;-72
2023/05/14 02:55:35;;;;;;;37.60;25.38;;;9.60;99.90;;;8.88;100.00;101768.38;4122064;28;20134;-72
2023/05/14 02:57:36;;;;;;;39.20;25.95;;;9.60;99.90;;;8.96;100.00;101765.16;4120930;28;20030;-72
2023/05/14 02:59:36;;;;;;;41.17;25.38;;;9.70;99.90;;;9.05;100.00;101767.88;4120958;28;20093;-72
2023/05/14 03:01:37;;;;;;;39.90;25.02;;;9.80;99.90;;;9.12;100.00;101765.59;4121813;28;20026;-73
2023/05/14 03:03:38;;;;;;;39.00;25.67;;;9.80;99.90;;;9.17;100.00;101771.34;4122038;28;20035;-72
2023/05/14 03:05:39;;;;;;;38.83;23.40;;;9.90;99.90;;;9.21;100.00;101759.59;4120965;28;20086;-72
2023/05/14 03:07:40;;;;;;;33.92;23.10;;;10.00;99.90;;;9.27;100.00;101751.22;4122129;28;20027;-73
2023/05/14 03:09:41;;;;;;;36.78;25.90;;;10.00;99.90;;;9.34;100.00;101763.78;4120893;28;20038;-72
2023/05/14 03:11:42;;;;;;;34.92;23.20;;;10.10;99.90;;;9.42;100.00;101768.41;4120673;28;20035;-72
2023/05/14 03:13:43;;;;;;;35.92;23.58;;;10.20;99.90;;;9.48;100.00;101762.66;4121852;28;20058;-72
2023/05/14 03:15:44;;;;;;;35.80;24.55;;;10.20;99.90;;;9.48;100.00;101762.66;4121476;28;20035;-73
2023/05/14 03:17:45;;;;;;;35.88;23.52;;;10.30;99.90;;;9.51;100.00;101767.69;4120530;28;20027;-72
2023/05/14 03:19:45;;;;;;;37.80;23.38;;;10.30;99.90;;;9.52;100.00;101757.97;4120542;28;20026;-72
2023/05/14 03:21:46;;;;;;;34.80;23.80;;;10.30;99.90;;;9.57;100.00;101761.06;4121875;28;20030;-72
2023/05/14 03:23:47;;;;;;;37.13;25.05;;;10.30;99.90;;;9.60;100.00;101760.81;4120533;28;20027;-72
2023/05/14 03:25:48;;;;;;;36.80;24.67;;;10.40;99.90;;;9.61;100.00;101752.81;4120362;28;20031;-72
2023/05/14 03:27:49;;;;;;;39.58;23.20;;;10.40;99.90;;;9.61;100.00;101758.06;4121422;28;20494;-72
2023/05/14 03:29:50;;;;;;;34.90;23.45;;;10.40;99.90;;;9.62;100.00;101753.63;4121665;28;20027;-73
2023/05/14 03:31:51;;;;;;;36.55;22.70;;;10.40;99.90;;;9.66;100.00;101749.78;4104066;28;20196;-73
2023/05/14 03:33:52;;;;;;;32.75;22.60;;;10.50;99.90;;;9.69;100.00;101749.53;4120458;28;20029;-72
2023/05/14 03:35:53;;;;;;;31.67;21.85;;;10.50;99.90;;;9.78;100.00;101757.53;4120143;28;20498;-72
2023/05/14 03:37:57;;;;;;;34.85;23.45;;;10.50;99.90;;;9.80;100.00;101752.94;4120346;28;20506;-73
2023/05/14 03:39:57;;;;;;;33.70;22.75;;;10.60;99.90;;;9.84;100.00;101758.81;4121457;28;20035;-72
2023/05/14 03:41:58;;;;;;;36.40;24.33;;;10.60;99.90;;;9.87;100.00;101745.38;4120059;28;20027;-73
2023/05/14 03:43:59;;;;;;;36.60;25.00;;;10.60;99.90;;;9.86;100.00;101741.91;4136064;28;20121;-73
2023/05/14 03:46:00;;;;;;;33.90;22.98;;;10.60;99.90;;;9.95;100.00;101748.22;4121194;28;20391;-72
2023/05/14 03:48:01;;;;;;;30.88;24.02;;;10.70;99.90;;;9.92;100.00;101745.84;4121361;28;20031;-73
2023/05/14 03:50:02;;;;;;;32.92;23.90;;;10.70;99.90;;;9.95;100.00;101746.41;4121536;28;20030;-73
2023/05/14 03:52:03;;;;;;;36.70;25.42;;;10.70;99.90;;;9.98;100.00;101756.72;4119953;28;20027;-72
2023/05/14 03:54:05;;;;;;;33.13;23.70;;;10.80;99.90;;;10.02;100.00;101763.41;4121268;28;20035;-72
2023/05/14 03:56:06;;;;;;;33.22;24.45;;;10.80;99.90;;;10.07;100.00;101749.00;4120062;28;20092;-73
2023/05/14 03:58:12;;;;;;;35.80;23.85;;;10.80;99.90;;;10.10;100.00;101754.00;4119846;28;20027;-73
2023/05/14 04:00:14;;;;;;;32.78;23.15;;;10.80;99.90;;;10.09;100.00;101745.28;4120711;28;20042;-74
2023/05/14 04:02:15;;;;;;;37.75;24.45;;;10.80;99.90;;;10.13;100.00;101746.72;4120794;28;20030;-73
2023/05/14 04:04:15;;;;;;;35.50;24.48;;;10.80;99.90;;;10.15;100.00;101746.59;4119868;28;20030;-73
2023/05/14 04:06:16;;;;;;;35.95;24.63;;;10.90;99.90;;;10.18;100.00;101744.56;4119577;28;20037;-73
2023/05/14 04:08:17;;;;;;;37.58;24.45;;;10.90;99.90;;;10.16;100.00;101742.97;4135540;28;20031;-73
2023/05/14 04:10:18;;;;;;;37.88;26.30;;;10.90;99.90;;;10.15;100.00;101742.16;4119872;28;20050;-73
2023/05/14 04:12:19;;;;;;;38.17;24.83;;;10.90;99.90;;;10.17;100.00;101744.66;4135892;28;20034;-73
2023/05/14 04:14:20;;;;;;;33.92;24.35;;;11.00;99.90;;;10.22;100.00;101755.66;4119656;28;20031;-73
2023/05/14 04:16:21;;;;;;;35.30;25.23;;;10.90;99.90;;;10.14;100.00;101744.91;4119218;28;20301;-73
2023/05/14 04:18:21;;;;;;;37.78;26.10;;;10.90;99.90;;;10.12;100.00;101746.81;4119522;28;20023;-73
2023/05/14 04:20:22;;;;;;;41.83;27.35;;;10.80;99.90;;;10.00;100.00;101749.50;4120914;28;20041;-73
2023/05/14 04:22:23;;;;;;;36.75;25.02;;;10.80;99.90;;;9.91;100.00;101750.28;4120397;28;20390;-72
2023/05/14 04:24:24;;;;;;;42.15;26.90;;;10.70;99.90;;;9.81;100.00;101749.38;4119313;28;20042;-72
2023/05/14 04:26:25;;;;;;;38.75;25.70;;;10.60;99.90;;;9.73;100.00;101746.53;4120698;28;20023;-72
2023/05/14 04:28:26;;;;;;;40.10;26.33;;;10.50;99.90;;;9.60;100.00;101729.22;4120838;28;20034;-73
2023/05/14 04:30:27;;;;;;;40.03;26.77;;;10.40;99.90;;;9.56;100.00;101741.78;4119376;28;20056;-72
2023/05/14 04:32:29;;;;;;;41.35;25.90;;;10.40;99.90;;;9.49;100.00;101743.25;4120675;28;20019;-73
2023/05/14 04:34:29;;;;;;;41.33;26.75;;;10.20;99.90;;;9.43;100.00;101741.13;4120632;28;20102;-72
2023/05/14 04:36:31;;;;;;;43.47;26.90;;;10.20;99.90;;;9.30;100.00;101728.13;4119232;28;20089;-73
2023/05/14 04:38:32;;;;;;;45.03;26.98;;;10.10;99.90;;;9.28;100.00;101729.19;4119240;28;20433;-72
2023/05/14 04:40:32;;;;;;;41.72;26.63;;;10.00;99.90;;;9.24;100.00;101736.50;4119109;28;20119;-72
2023/05/14 04:42:33;;;;;;;35.05;24.60;;;10.00;99.90;;;9.23;100.00;101745.34;4119406;28;20019;-73
2023/05/14 04:44:36;;;;;;;43.30;27.58;;;9.90;99.90;;;9.20;100.00;101739.53;4119111;28;20130;-73
2023/05/14 04:46:37;;;;;;;38.40;25.85;;;9.90;99.90;;;9.18;100.00;101734.38;4134974;28;20501;-72
2023/05/14 04:48:38;;;;;;;45.08;28.52;;;9.90;99.90;;;9.17;100.00;101740.56;4119052;28;20034;-72
2023/05/14 04:50:38;;;;;;;39.10;26.48;;;9.90;99.90;;;9.15;100.00;101741.66;4119222;28;20023;-72
2023/05/14 04:52:39;;;;;;;45.75;28.73;;;9.90;99.90;;;9.13;100.00;101739.16;4119233;28;20030;-72
2023/05/14 04:54:40;;;;;;;39.53;26.30;;;9.80;99.90;;;9.13;100.00;101744.44;4119010;28;20031;-73
2023/05/14 04:56:41;;;;;;;40.30;24.75;;;9.80;99.90;;;9.12;100.00;101747.16;4120254;28;20403;-73
2023/05/14 04:58:42;;;;;;;46.38;27.88;;;9.80;99.90;;;9.11;100.00;101748.16;4118961;28;20029;-72
2023/05/14 05:00:44;;;;;;;46.35;28.92;;;9.90;99.90;;;9.16;100.00;101752.09;4118743;28;20026;-73
2023/05/14 05:02:45;;;;;;;51.20;31.73;;;9.90;99.90;;;9.21;100.00;101744.66;4118858;28;20023;-73
2023/05/14 05:04:46;;;;;;;52.45;30.42;;;9.90;99.90;;;9.23;100.00;101750.63;4118831;28;20030;-73
2023/05/14 05:06:46;;;;;;;54.45;31.15;;;9.90;99.90;;;9.26;100.00;101746.91;4120019;28;20031;-73
2023/05/14 05:08:47;;;;;;;53.95;31.85;;;9.90;99.90;;;9.28;100.00;101752.91;4120303;28;20045;-73
2023/05/14 05:10:48;;;;;;;52.72;33.15;;;9.90;99.90;;;9.26;100.00;101736.38;4120102;28;20495;-73
2023/05/14 05:12:49;;;;;;;54.25;31.40;;;10.00;99.90;;;9.33;100.00;101745.47;4118948;28;20158;-73
2023/05/14 05:14:50;;;;;;;58.03;32.90;;;10.00;99.90;;;9.32;100.00;101733.25;4119929;28;20043;-73
2023/05/14 05:16:51;;;;;;;54.30;31.52;;;10.00;99.90;;;9.41;100.00;101745.66;4118799;28;20030;-72
2023/05/14 05:18:52;;;;;;;51.92;32.17;;;10.10;99.90;;;9.44;100.00;101753.31;4118971;28;20033;-73
2023/05/14 05:20:53;;;;;;;53.95;32.97;;;10.10;99.90;;;9.46;100.00;101748.78;4120035;28;20497;-73
2023/05/14 05:22:53;;;;;;;53.90;31.27;;;10.10;99.90;;;9.47;100.00;101739.91;4119921;28;20019;-72
2023/05/14 05:24:54;;;;;;;57.42;32.58;;;10.10;99.90;;;9.51;100.00;101745.75;4118940;28;20038;-73
2023/05/14 05:26:55;;;;;;;55.00;32.38;;;10.10;99.90;;;9.50;100.00;101739.66;4120365;28;20034;-73
2023/05/14 05:28:56;;;;;;;55.20;33.40;;;10.20;99.90;;;9.54;100.00;101743.72;4118828;28;20050;-73
2023/05/14 05:30:57;;;;;;;61.00;35.10;;;10.20;99.90;;;9.55;100.00;101741.94;4118528;28;20034;-72
2023/05/14 05:32:58;;;;;;;55.85;33.75;;;10.20;99.90;;;9.63;100.00;101747.41;4135270;28;20050;-72
2023/05/14 05:34:59;;;;;;;55.00;33.85;;;10.20;99.90;;;9.63;100.00;101739.50;4121156;28;20070;-72
2023/05/14 05:37:00;;;;;;;51.60;31.27;;;10.30;99.90;;;9.70;100.00;101745.94;4122190;28;20102;-72
2023/05/14 05:39:01;;;;;;;54.67;31.52;;;10.30;99.90;;;9.74;100.00;101753.47;4123037;28;20026;-72
2023/05/14 05:41:02;;;;;;;54.20;33.30;;;10.30;99.90;;;9.81;100.00;101759.06;4121930;28;20032;-72
2023/05/14 05:43:03;;;;;;;54.05;33.63;;;10.40;99.90;;;9.81;100.00;101753.78;4123196;28;20089;-72
2023/05/14 05:45:05;;;;;;;54.45;32.05;;;10.40;99.90;;;9.92;100.00;101765.13;4121768;28;20051;-73
2023/05/14 05:47:06;;;;;;;47.92;30.75;;;10.50;99.90;;;9.96;100.00;101757.81;4123038;28;20027;-72
2023/05/14 05:49:07;;;;;;;51.83;31.10;;;10.50;99.90;;;10.05;100.00;101770.22;4122015;28;20042;-73
2023/05/14 05:51:07;;;;;;;52.67;33.53;;;10.60;99.90;;;10.11;100.00;101766.22;4123375;28;20394;-73
2023/05/14 05:53:08;;;;;;;55.50;33.15;;;10.70;99.90;;;10.06;100.00;101756.09;4123017;28;20065;-72
2023/05/14 05:55:09;;;;;;;51.38;32.13;;;10.70;99.90;;;10.22;100.00;101774.09;4121374;28;20031;-72
2023/05/14 05:57:10;;;;;;;41.45;29.58;;;10.70;99.90;;;10.22;100.00;101774.94;4123162;28;20031;-73
2023/05/14 05:59:11;;;;;;;48.92;31.42;;;10.80;99.90;;;10.19;100.00;101769.94;4122979;28;20030;-73
2023/05/14 06:01:12;;;;;;;48.78;32.83;;;10.80;99.90;;;10.22;100.00;101774.09;4122674;28;20487;-73
2023/05/14 06:03:13;;;;;;;52.80;33.97;;;10.80;99.90;;;10.24;100.00;101772.19;4121897;28;20034;-73
2023/05/14 06:05:14;;;;;;;47.70;30.83;;;10.80;99.90;;;10.23;100.00;101768.72;4121729;28;20023;-73
2023/05/14 06:07:15;;;;;;;48.92;30.60;;;10.90;99.90;;;10.31;100.00;101774.19;4122863;28;20023;-73
2023/05/14 06:09:16;;;;;;;47.15;32.20;;;10.90;99.90;;;10.32;100.00;101773.22;4137750;28;20382;-73
2023/05/14 06:11:17;;;;;;;40.95;28.83;;;10.90;99.90;;;10.42;100.00;101770.66;4137884;28;20061;-73
2023/05/14 06:13:17;;;;;;;42.72;28.38;;;11.00;99.90;;;10.45;100.00;101773.03;4121323;28;20027;-72
2023/05/14 06:15:18;;;;;;;42.22;29.35;;;11.00;99.90;;;10.48;100.00;101767.50;4121043;28;20034;-73
2023/05/14 06:17:20;;;;;;;43.35;27.83;;;11.10;99.90;;;10.54;100.00;101775.69;4121534;28;20054;-73
2023/05/14 06:19:22;;;;;;;43.28;28.40;;;11.10;99.90;;;10.62;100.00;101782.97;4121305;28;20029;-73
2023/05/14 06:21:23;;;;;;;40.28;27.70;;;11.20;99.90;;;10.69;100.00;101781.50;4137407;28;20033;-72
2023/05/14 06:23:25;;;;;;;37.80;26.85;;;11.20;99.90;;;10.76;100.00;101782.63;4122604;28;20035;-73
2023/05/14 06:25:26;;;;;;;39.83;26.60;;;11.20;99.90;;;10.83;100.00;101785.56;4122657;28;20034;-72
2023/05/14 06:27:26;;;;;;;40.88;27.75;;;11.30;99.90;;;10.84;100.00;101787.25;4122535;28;20501;-72
2023/05/14 06:29:27;;;;;;;38.40;26.27;;;11.40;99.90;;;11.04;100.00;101799.56;4121251;28;20038;-72
2023/05/14 06:31:28;;;;;;;35.53;25.90;;;11.50;99.90;;;11.26;100.00;101804.63;4127287;28;20046;-72
2023/05/14 06:33:30;;;;;;;37.90;25.80;;;11.60;99.90;;;11.37;100.00;101795.78;4121134;28;20018;-72
2023/05/14 06:35:31;;;;;;;38.20;26.23;;;11.80;99.90;;;11.59;100.00;101803.44;4121046;28;20085;-73
2023/05/14 06:37:32;;;;;;;33.13;23.55;;;12.00;99.90;;;11.77;100.00;101796.56;4121268;28;20019;-73
2023/05/14 06:39:33;;;;;;;35.47;25.05;;;12.20;99.90;;;11.82;100.00;101789.06;4121308;28;20045;-73
2023/05/14 06:41:34;;;;;;;32.13;23.45;;;12.40;99.90;;;11.98;100.00;101785.84;4121114;28;20466;-72
2023/05/14 06:43:35;;;;;;;32.63;23.83;;;12.60;99.90;;;11.98;100.00;101809.63;4121315;28;20031;-72
2023/05/14 06:45:36;;;;;;;34.50;23.38;;;12.60;99.90;;;12.05;100.00;101792.25;4121561;28;20043;-73
2023/05/14 06:47:37;;;;;;;29.85;22.50;;;12.70;99.90;;;12.06;100.00;101788.66;4122289;28;20031;-73
2023/05/14 06:49:38;;;;;;;33.90;22.77;;;12.80;99.90;;;12.09;100.00;101791.00;4121066;28;20038;-73
2023/05/14 06:51:40;;;;;;;30.20;22.05;;;12.90;99.90;;;12.18;100.00;101790.97;4122098;28;20031;-72
2023/05/14 06:53:41;;;;;;;29.83;23.02;;;12.90;99.90;;;12.21;100.00;101801.28;4122094;28;20029;-73
2023/05/14 06:55:42;;;;;;;30.30;22.52;;;13.00;99.90;;;12.11;100.00;101787.25;4120984;28;20034;-73
2023/05/14 06:57:43;;;;;;;30.83;20.25;;;13.00;99.90;;;12.33;100.00;101796.69;4121103;28;20529;-73
2023/05/14 06:59:44;;;;;;;26.02;20.40;;;13.10;99.90;;;12.52;100.00;101793.16;4122254;28;20062;-72
2023/05/14 07:01:45;;;;;;;33.72;22.30;;;13.20;99.90;;;12.44;100.00;101788.59;4136458;28;20597;-73
2023/05/14 07:03:46;;;;;;;25.05;19.20;;;13.20;99.90;;;12.67;100.00;101799.66;4104852;28;20435;-73
2023/05/14 07:05:47;;;;;;;24.00;18.35;;;13.30;99.90;;;12.78;100.00;101795.03;4118130;28;20034;-72
2023/05/14 07:07:48;;;;;;;25.27;19.73;;;13.50;99.90;;;12.82;100.00;101800.03;4120797;28;20030;-72
2023/05/14 07:09:49;;;;;;;28.55;20.55;;;13.50;99.90;;;12.91;100.00;101789.41;4121809;28;20078;-73
2023/05/14 07:11:50;;;;;;;26.38;20.20;;;13.60;99.90;;;12.65;100.00;101785.75;4130279;28;20037;-72
2023/05/14 07:13:51;;;;;;;24.70;18.95;;;13.60;99.90;;;12.76;100.00;101788.22;4104625;29;20031;-73
2023/05/14 07:15:54;;;;;;;25.80;19.95;;;13.60;99.90;;;12.77;100.00;101787.25;4120280;28;20042;-73
2023/05/14 07:17:55;;;;;;;22.67;18.25;;;13.70;99.90;;;12.98;100.00;101779.06;4120451;28;20022;-73
2023/05/14 07:19:56;;;;;;;28.83;20.65;;;13.80;99.90;;;13.02;100.00;101781.28;4120434;28;20070;-73
2023/05/14 07:21:57;;;;;;;31.45;20.30;;;13.90;99.90;;;13.19;100.00;101785.84;4120334;28;20014;-73
2023/05/14 07:23:57;;;;;;;26.02;20.05;;;13.90;99.90;;;13.16;100.00;101778.19;4121700;28;20031;-73
2023/05/14 07:25:58;;;;;;;24.05;17.05;;;14.00;99.90;;;13.36;100.00;101788.66;4121022;28;20096;-73
2023/05/14 07:27:59;;;;;;;24.40;18.58;;;14.10;99.90;;;13.47;100.00;101778.69;4121665;28;20042;-73
2023/05/14 07:30:00;;;;;;;23.13;17.80;;;14.20;99.90;;;13.66;100.00;101778.56;4121452;28;20081;-73
2023/05/14 07:32:01;;;;;;;26.10;19.85;;;14.20;99.90;;;13.64;100.00;101785.00;4120225;28;20069;-73
2023/05/14 07:34:02;;;;;;;22.23;17.83;;;14.40;99.90;;;13.81;100.00;101781.53;4120572;28;20038;-72
2023/05/14 07:36:04;;;;;;;21.50;16.92;;;14.50;99.90;;;14.14;100.00;101788.78;4121496;28;20039;-73
2023/05/14 07:38:05;;;;;;;24.48;19.17;;;14.60;99.90;;;13.90;100.00;101793.88;4121751;28;20041;-73
2023/05/14 07:40:06;;;;;;;25.30;18.85;;;14.70;99.90;;;13.92;100.00;101786.59;4120252;28;20058;-73
2023/05/14 07:42:07;;;;;;;24.48;16.88;;;14.60;99.90;;;14.20;100.00;101784.69;4121194;28;20026;-73
2023/05/14 07:44:08;;;;;;;24.63;19.60;;;14.70;99.90;;;14.21;100.00;101796.97;4120411;28;20026;-73
2023/05/14 07:46:09;;;;;;;25.77;17.67;;;14.80;99.90;;;14.28;100.00;101795.34;4121326;28;20065;-73
2023/05/14 07:48:10;;;;;;;22.02;16.70;;;14.90;99.90;;;14.51;100.00;101801.03;4120269;28;20583;-72
2023/05/14 07:50:11;;;;;;;22.85;19.50;;;15.00;99.90;;;14.54;100.00;101796.25;4121517;28;20038;-73
2023/05/14 07:52:12;;;;;;;19.88;16.40;;;15.10;99.90;;;14.76;100.00;101810.81;4121077;28;20081;-73
2023/05/14 07:54:13;;;;;;;23.58;18.08;;;15.20;99.90;;;14.90;100.00;101807.59;4121298;28;20054;-73
2023/05/14 07:56:14;;;;;;;24.33;18.02;;;15.50;99.90;;;15.14;100.00;101799.69;4120028;28;20158;-73
2023/05/14 07:58:15;;;;;;;23.67;18.15;;;15.60;99.90;;;15.40;100.00;101810.28;4119409;28;20105;-73
2023/05/14 08:00:16;;;;;;;24.13;17.58;;;15.90;99.90;;;15.36;100.00;101816.91;4135540;28;20022;-73
2023/05/14 08:02:17;;;;;;;23.65;17.02;;;16.10;99.90;;;15.46;100.00;101809.63;4121230;28;20114;-73
2023/05/14 08:04:18;;;;;;;20.63;16.52;;;16.10;99.90;;;15.43;100.00;101799.31;4119789;28;20030;-72
2023/05/14 08:06:21;;;;;;;21.02;17.02;;;16.10;99.90;;;15.30;100.00;101796.28;4121231;28;20435;-73
2023/05/14 08:08:22;;;;;;;22.00;16.15;;;16.00;99.90;;;15.25;100.00;101799.44;4119590;28;20026;-73
2023/05/14 08:10:23;;;;;;;21.23;16.75;;;15.90;99.90;;;14.96;100.00;101799.00;4119858;28;20039;-73
2023/05/14 08:12:25;;;;;;;22.88;17.42;;;15.70;99.90;;;14.75;100.00;101793.22;4103633;29;20534;-73
2023/05/14 08:14:26;;;;;;;20.45;16.65;;;15.50;99.90;;;14.64;100.00;101791.66;4135944;28;20027;-73
2023/05/14 08:16:28;;;;;;;21.42;16.52;;;15.30;99.90;;;14.67;100.00;101793.16;4119085;28;20055;-73